sensor_id;sensor_type;location;lat;lon;timestamp;P1;durP1;ratioP1;P2;durP2;ratioP2
20653;SDS011;21083;50.898;4.902;2023-03-12T00:02:20;12.63;;;4.13;;
20653;SDS011;21083;50.898;4.902;2023-03-12T00:04:47;15.02;;;5.40;;
20653;SDS011;21083;50.898;4.902;2023-03-12T00:07:14;8.13;;;3.55;;
20653;SDS011;21083;50.898;4.902;2023-03-12T00:09:42;18.65;;;4.05;;
20653;SDS011;21083;50.898;4.902;2023-03-12T00:12:10;12.35;;;4.43;;
20653;SDS011;21083;50.898;4.902;2023-03-12T00:14:37;12.45;;;3.95;;
20653;SDS011;21083;50.898;4.902;2023-03-12T00:17:04;13.38;;;4.57;;
20653;SDS011;21083;50.898;4.902;2023-03-12T00:19:31;12.73;;;4.05;;
20653;SDS011;21083;50.898;4.902;2023-03-12T00:21:58;16.23;;;5.00;;
20653;SDS011;21083;50.898;4.902;2023-03-12T00:24:25;15.32;;;4.50;;
20653;SDS011;21083;50.898;4.902;2023-03-12T00:26:53;12.63;;;4.25;;
20653;SDS011;21083;50.898;4.902;2023-03-12T00:29:20;12.80;;;4.05;;
20653;SDS011;21083;50.898;4.902;2023-03-12T00:31:47;11.65;;;4.05;;
20653;SDS011;21083;50.898;4.902;2023-03-12T00:34:15;16.45;;;4.72;;
20653;SDS011;21083;50.898;4.902;2023-03-12T00:36:42;15.80;;;4.85;;
20653;SDS011;21083;50.898;4.902;2023-03-12T00:39:09;17.20;;;4.97;;
20653;SDS011;21083;50.898;4.902;2023-03-12T00:41:37;13.90;;;4.60;;
20653;SDS011;21083;50.898;4.902;2023-03-12T00:44:05;16.27;;;4.70;;
20653;SDS011;21083;50.898;4.902;2023-03-12T00:46:32;16.58;;;4.57;;
20653;SDS011;21083;50.898;4.902;2023-03-12T00:48:59;16.60;;;4.20;;
20653;SDS011;21083;50.898;4.902;2023-03-12T00:51:26;13.98;;;4.80;;
20653;SDS011;21083;50.898;4.902;2023-03-12T00:53:53;19.58;;;4.68;;
20653;SDS011;21083;50.898;4.902;2023-03-12T00:56:21;17.48;;;5.22;;
20653;SDS011;21083;50.898;4.902;2023-03-12T00:58:48;11.07;;;4.35;;
20653;SDS011;21083;50.898;4.902;2023-03-12T01:01:16;15.00;;;4.20;;
20653;SDS011;21083;50.898;4.902;2023-03-12T01:03:44;12.73;;;4.70;;
20653;SDS011;21083;50.898;4.902;2023-03-12T01:06:11;14.50;;;4.60;;
20653;SDS011;21083;50.898;4.902;2023-03-12T01:08:38;14.77;;;5.90;;
20653;SDS011;21083;50.898;4.902;2023-03-12T01:11:05;13.63;;;4.40;;
20653;SDS011;21083;50.898;4.902;2023-03-12T01:13:31;15.20;;;4.68;;
20653;SDS011;21083;50.898;4.902;2023-03-12T01:15:58;13.20;;;4.68;;
20653;SDS011;21083;50.898;4.902;2023-03-12T01:18:27;14.65;;;4.32;;
20653;SDS011;21083;50.898;4.902;2023-03-12T01:20:54;16.33;;;4.85;;
20653;SDS011;21083;50.898;4.902;2023-03-12T01:23:21;14.85;;;4.28;;
20653;SDS011;21083;50.898;4.902;2023-03-12T01:25:48;15.35;;;4.68;;
20653;SDS011;21083;50.898;4.902;2023-03-12T01:28:16;13.00;;;4.05;;
20653;SDS011;21083;50.898;4.902;2023-03-12T01:30:43;11.90;;;4.28;;
20653;SDS011;21083;50.898;4.902;2023-03-12T01:33:10;14.27;;;4.53;;
20653;SDS011;21083;50.898;4.902;2023-03-12T01:35:38;14.40;;;3.30;;
20653;SDS011;21083;50.898;4.902;2023-03-12T01:38:07;15.00;;;4.10;;
20653;SDS011;21083;50.898;4.902;2023-03-12T01:40:37;13.85;;;4.45;;
20653;SDS011;21083;50.898;4.902;2023-03-12T01:43:21;12.77;;;4.05;;
20653;SDS011;21083;50.898;4.902;2023-03-12T01:45:59;13.68;;;3.75;;
20653;SDS011;21083;50.898;4.902;2023-03-12T01:48:31;23.52;;;3.80;;
20653;SDS011;21083;50.898;4.902;2023-03-12T01:51:03;14.68;;;3.95;;
20653;SDS011;21083;50.898;4.902;2023-03-12T01:53:31;12.05;;;3.47;;
20653;SDS011;21083;50.898;4.902;2023-03-12T01:55:59;13.75;;;3.80;;
20653;SDS011;21083;50.898;4.902;2023-03-12T01:58:27;12.93;;;3.60;;
20653;SDS011;21083;50.898;4.902;2023-03-12T02:00:58;12.57;;;3.72;;
20653;SDS011;21083;50.898;4.902;2023-03-12T02:03:25;9.30;;;3.00;;
20653;SDS011;21083;50.898;4.902;2023-03-12T02:05:53;10.50;;;3.15;;
20653;SDS011;21083;50.898;4.902;2023-03-12T02:08:26;7.80;;;2.97;;
20653;SDS011;21083;50.898;4.902;2023-03-12T02:10:54;11.82;;;3.10;;
20653;SDS011;21083;50.898;4.902;2023-03-12T02:13:21;16.30;;;4.63;;
20653;SDS011;21083;50.898;4.902;2023-03-12T02:15:48;6.78;;;2.78;;
20653;SDS011;21083;50.898;4.902;2023-03-12T02:18:15;11.63;;;3.03;;
20653;SDS011;21083;50.898;4.902;2023-03-12T02:20:46;11.05;;;3.08;;
20653;SDS011;21083;50.898;4.902;2023-03-12T02:23:20;13.27;;;3.95;;
20653;SDS011;21083;50.898;4.902;2023-03-12T02:25:57;10.98;;;3.30;;
20653;SDS011;21083;50.898;4.902;2023-03-12T02:28:25;12.98;;;2.60;;
20653;SDS011;21083;50.898;4.902;2023-03-12T02:30:56;12.85;;;3.20;;
20653;SDS011;21083;50.898;4.902;2023-03-12T02:33:24;8.95;;;2.78;;
20653;SDS011;21083;50.898;4.902;2023-03-12T02:35:51;8.65;;;2.47;;
20653;SDS011;21083;50.898;4.902;2023-03-12T02:38:28;11.90;;;3.35;;
20653;SDS011;21083;50.898;4.902;2023-03-12T02:41:04;8.88;;;2.47;;
20653;SDS011;21083;50.898;4.902;2023-03-12T02:43:36;10.93;;;2.45;;
20653;SDS011;21083;50.898;4.902;2023-03-12T02:46:04;9.85;;;2.45;;
20653;SDS011;21083;50.898;4.902;2023-03-12T02:48:33;12.75;;;2.97;;
20653;SDS011;21083;50.898;4.902;2023-03-12T02:51:00;7.75;;;2.80;;
20653;SDS011;21083;50.898;4.902;2023-03-12T02:53:28;15.15;;;2.60;;
20653;SDS011;21083;50.898;4.902;2023-03-12T02:55:55;10.07;;;2.50;;
20653;SDS011;21083;50.898;4.902;2023-03-12T02:58:23;7.45;;;2.40;;
20653;SDS011;21083;50.898;4.902;2023-03-12T03:00:51;9.38;;;2.67;;
20653;SDS011;21083;50.898;4.902;2023-03-12T03:03:18;12.35;;;2.30;;
20653;SDS011;21083;50.898;4.902;2023-03-12T03:05:45;5.70;;;2.17;;
20653;SDS011;21083;50.898;4.902;2023-03-12T03:08:12;6.82;;;2.55;;
20653;SDS011;21083;50.898;4.902;2023-03-12T03:10:39;10.57;;;3.28;;
20653;SDS011;21083;50.898;4.902;2023-03-12T03:13:06;9.25;;;2.70;;
20653;SDS011;21083;50.898;4.902;2023-03-12T03:15:35;14.80;;;2.80;;
20653;SDS011;21083;50.898;4.902;2023-03-12T03:18:03;9.90;;;2.80;;
20653;SDS011;21083;50.898;4.902;2023-03-12T03:20:30;13.48;;;3.03;;
20653;SDS011;21083;50.898;4.902;2023-03-12T03:22:57;7.63;;;2.58;;
20653;SDS011;21083;50.898;4.902;2023-03-12T03:25:24;10.60;;;2.78;;
20653;SDS011;21083;50.898;4.902;2023-03-12T03:27:51;10.32;;;2.90;;
20653;SDS011;21083;50.898;4.902;2023-03-12T03:30:18;8.27;;;2.63;;
20653;SDS011;21083;50.898;4.902;2023-03-12T03:32:48;9.27;;;3.08;;
20653;SDS011;21083;50.898;4.902;2023-03-12T03:35:15;11.00;;;3.20;;
20653;SDS011;21083;50.898;4.902;2023-03-12T03:37:42;8.30;;;2.55;;
20653;SDS011;21083;50.898;4.902;2023-03-12T03:40:09;10.13;;;3.50;;
20653;SDS011;21083;50.898;4.902;2023-03-12T03:42:37;11.70;;;2.70;;
20653;SDS011;21083;50.898;4.902;2023-03-12T03:45:06;13.82;;;3.20;;
20653;SDS011;21083;50.898;4.902;2023-03-12T03:47:34;8.40;;;3.08;;
20653;SDS011;21083;50.898;4.902;2023-03-12T03:50:03;9.43;;;3.00;;
20653;SDS011;21083;50.898;4.902;2023-03-12T03:52:31;11.30;;;3.75;;
20653;SDS011;21083;50.898;4.902;2023-03-12T03:54:58;8.13;;;2.80;;
20653;SDS011;21083;50.898;4.902;2023-03-12T03:57:25;9.75;;;3.05;;
20653;SDS011;21083;50.898;4.902;2023-03-12T03:59:53;8.88;;;3.17;;
20653;SDS011;21083;50.898;4.902;2023-03-12T04:02:20;10.32;;;3.22;;
20653;SDS011;21083;50.898;4.902;2023-03-12T04:04:47;14.43;;;3.38;;
20653;SDS011;21083;50.898;4.902;2023-03-12T04:07:16;12.27;;;2.88;;
20653;SDS011;21083;50.898;4.902;2023-03-12T04:09:43;11.25;;;4.22;;
20653;SDS011;21083;50.898;4.902;2023-03-12T04:12:10;10.95;;;3.40;;
20653;SDS011;21083;50.898;4.902;2023-03-12T04:14:40;12.32;;;3.25;;
20653;SDS011;21083;50.898;4.902;2023-03-12T04:17:08;19.27;;;5.55;;
20653;SDS011;21083;50.898;4.902;2023-03-12T04:19:35;12.95;;;3.38;;
20653;SDS011;21083;50.898;4.902;2023-03-12T04:22:02;12.38;;;3.95;;
20653;SDS011;21083;50.898;4.902;2023-03-12T04:24:31;12.13;;;3.58;;
20653;SDS011;21083;50.898;4.902;2023-03-12T04:26:58;14.77;;;4.38;;
20653;SDS011;21083;50.898;4.902;2023-03-12T04:29:25;13.00;;;3.03;;
20653;SDS011;21083;50.898;4.902;2023-03-12T04:31:52;14.40;;;4.40;;
20653;SDS011;21083;50.898;4.902;2023-03-12T04:34:19;9.88;;;3.20;;
20653;SDS011;21083;50.898;4.902;2023-03-12T04:36:46;9.23;;;2.75;;
20653;SDS011;21083;50.898;4.902;2023-03-12T04:39:15;11.23;;;3.88;;
20653;SDS011;21083;50.898;4.902;2023-03-12T04:41:45;8.50;;;3.05;;
20653;SDS011;21083;50.898;4.902;2023-03-12T04:44:12;13.77;;;3.90;;
20653;SDS011;21083;50.898;4.902;2023-03-12T04:46:40;10.20;;;3.00;;
20653;SDS011;21083;50.898;4.902;2023-03-12T04:49:07;13.25;;;3.13;;
20653;SDS011;21083;50.898;4.902;2023-03-12T04:51:34;10.23;;;3.30;;
20653;SDS011;21083;50.898;4.902;2023-03-12T04:54:01;11.05;;;3.50;;
20653;SDS011;21083;50.898;4.902;2023-03-12T04:56:28;10.63;;;2.88;;
20653;SDS011;21083;50.898;4.902;2023-03-12T04:58:57;12.18;;;3.17;;
20653;SDS011;21083;50.898;4.902;2023-03-12T05:01:24;10.15;;;2.95;;
20653;SDS011;21083;50.898;4.902;2023-03-12T05:03:52;7.85;;;2.92;;
20653;SDS011;21083;50.898;4.902;2023-03-12T05:06:20;13.68;;;3.53;;
20653;SDS011;21083;50.898;4.902;2023-03-12T05:08:48;11.32;;;3.22;;
20653;SDS011;21083;50.898;4.902;2023-03-12T05:11:15;12.50;;;3.40;;
20653;SDS011;21083;50.898;4.902;2023-03-12T05:13:43;15.75;;;2.85;;
20653;SDS011;21083;50.898;4.902;2023-03-12T05:16:11;10.27;;;3.22;;
20653;SDS011;21083;50.898;4.902;2023-03-12T05:18:39;9.10;;;2.90;;
20653;SDS011;21083;50.898;4.902;2023-03-12T05:21:07;13.45;;;3.70;;
20653;SDS011;21083;50.898;4.902;2023-03-12T05:23:38;8.38;;;3.20;;
20653;SDS011;21083;50.898;4.902;2023-03-12T05:26:06;10.77;;;3.53;;
20653;SDS011;21083;50.898;4.902;2023-03-12T05:28:34;9.68;;;3.35;;
20653;SDS011;21083;50.898;4.902;2023-03-12T05:31:01;9.60;;;3.20;;
20653;SDS011;21083;50.898;4.902;2023-03-12T05:33:36;9.88;;;3.38;;
20653;SDS011;21083;50.898;4.902;2023-03-12T05:36:03;9.05;;;2.97;;
20653;SDS011;21083;50.898;4.902;2023-03-12T05:38:30;13.57;;;3.40;;
20653;SDS011;21083;50.898;4.902;2023-03-12T05:40:58;10.63;;;3.92;;
20653;SDS011;21083;50.898;4.902;2023-03-12T05:43:25;9.90;;;3.95;;
20653;SDS011;21083;50.898;4.902;2023-03-12T05:45:53;11.55;;;4.90;;
20653;SDS011;21083;50.898;4.902;2023-03-12T05:48:23;13.45;;;4.05;;
20653;SDS011;21083;50.898;4.902;2023-03-12T05:50:51;16.65;;;4.53;;
20653;SDS011;21083;50.898;4.902;2023-03-12T05:53:18;13.80;;;4.57;;
20653;SDS011;21083;50.898;4.902;2023-03-12T05:55:45;9.77;;;4.15;;
20653;SDS011;21083;50.898;4.902;2023-03-12T05:58:12;8.80;;;3.72;;
20653;SDS011;21083;50.898;4.902;2023-03-12T06:00:40;12.60;;;4.78;;
20653;SDS011;21083;50.898;4.902;2023-03-12T06:03:08;10.43;;;4.13;;
20653;SDS011;21083;50.898;4.902;2023-03-12T06:05:36;12.95;;;4.93;;
20653;SDS011;21083;50.898;4.902;2023-03-12T06:08:05;12.13;;;4.57;;
20653;SDS011;21083;50.898;4.902;2023-03-12T06:10:32;13.23;;;5.05;;
20653;SDS011;21083;50.898;4.902;2023-03-12T06:12:59;14.75;;;5.10;;
20653;SDS011;21083;50.898;4.902;2023-03-12T06:15:26;14.23;;;5.95;;
20653;SDS011;21083;50.898;4.902;2023-03-12T06:17:53;17.05;;;7.18;;
20653;SDS011;21083;50.898;4.902;2023-03-12T06:20:21;13.82;;;5.68;;
20653;SDS011;21083;50.898;4.902;2023-03-12T06:22:48;12.25;;;5.45;;
20653;SDS011;21083;50.898;4.902;2023-03-12T06:25:16;16.75;;;5.45;;
20653;SDS011;21083;50.898;4.902;2023-03-12T06:27:43;13.40;;;5.47;;
20653;SDS011;21083;50.898;4.902;2023-03-12T06:30:10;12.65;;;5.20;;
20653;SDS011;21083;50.898;4.902;2023-03-12T06:32:38;18.08;;;5.88;;
20653;SDS011;21083;50.898;4.902;2023-03-12T06:35:05;15.65;;;5.95;;
20653;SDS011;21083;50.898;4.902;2023-03-12T06:37:32;17.20;;;6.00;;
20653;SDS011;21083;50.898;4.902;2023-03-12T06:39:59;15.20;;;5.95;;
20653;SDS011;21083;50.898;4.902;2023-03-12T06:42:28;18.45;;;5.97;;
20653;SDS011;21083;50.898;4.902;2023-03-12T06:44:55;14.90;;;6.13;;
20653;SDS011;21083;50.898;4.902;2023-03-12T06:47:22;14.70;;;6.80;;
20653;SDS011;21083;50.898;4.902;2023-03-12T06:49:48;14.82;;;6.38;;
20653;SDS011;21083;50.898;4.902;2023-03-12T06:52:15;16.95;;;6.65;;
20653;SDS011;21083;50.898;4.902;2023-03-12T06:54:42;13.02;;;6.10;;
20653;SDS011;21083;50.898;4.902;2023-03-12T06:57:09;14.65;;;6.65;;
20653;SDS011;21083;50.898;4.902;2023-03-12T06:59:38;17.45;;;7.00;;
20653;SDS011;21083;50.898;4.902;2023-03-12T07:02:05;15.45;;;6.78;;
20653;SDS011;21083;50.898;4.902;2023-03-12T07:04:32;17.77;;;7.38;;
20653;SDS011;21083;50.898;4.902;2023-03-12T07:06:59;16.08;;;6.95;;
20653;SDS011;21083;50.898;4.902;2023-03-12T07:09:26;15.10;;;7.15;;
20653;SDS011;21083;50.898;4.902;2023-03-12T07:11:53;12.18;;;6.38;;
20653;SDS011;21083;50.898;4.902;2023-03-12T07:14:19;16.73;;;7.72;;
20653;SDS011;21083;50.898;4.902;2023-03-12T07:16:48;15.68;;;7.53;;
20653;SDS011;21083;50.898;4.902;2023-03-12T07:19:15;17.88;;;7.70;;
20653;SDS011;21083;50.898;4.902;2023-03-12T07:21:43;20.85;;;7.22;;
20653;SDS011;21083;50.898;4.902;2023-03-12T07:24:10;16.17;;;7.63;;
20653;SDS011;21083;50.898;4.902;2023-03-12T07:26:37;14.88;;;7.63;;
20653;SDS011;21083;50.898;4.902;2023-03-12T07:29:04;14.18;;;7.25;;
20653;SDS011;21083;50.898;4.902;2023-03-12T07:31:31;16.05;;;7.28;;
20653;SDS011;21083;50.898;4.902;2023-03-12T07:33:59;14.45;;;7.38;;
20653;SDS011;21083;50.898;4.902;2023-03-12T07:36:27;17.77;;;8.05;;
20653;SDS011;21083;50.898;4.902;2023-03-12T07:38:54;18.85;;;7.75;;
20653;SDS011;21083;50.898;4.902;2023-03-12T07:41:21;15.32;;;7.47;;
20653;SDS011;21083;50.898;4.902;2023-03-12T07:43:48;20.20;;;8.35;;
20653;SDS011;21083;50.898;4.902;2023-03-12T07:46:15;17.45;;;8.32;;
20653;SDS011;21083;50.898;4.902;2023-03-12T07:48:42;16.30;;;7.85;;
20653;SDS011;21083;50.898;4.902;2023-03-12T07:51:11;23.55;;;8.25;;
20653;SDS011;21083;50.898;4.902;2023-03-12T07:53:38;18.70;;;7.93;;
20653;SDS011;21083;50.898;4.902;2023-03-12T07:56:05;20.25;;;7.47;;
20653;SDS011;21083;50.898;4.902;2023-03-12T07:58:32;22.45;;;8.43;;
20653;SDS011;21083;50.898;4.902;2023-03-12T08:01:00;17.88;;;8.10;;
20653;SDS011;21083;50.898;4.902;2023-03-12T08:03:27;18.65;;;8.70;;
20653;SDS011;21083;50.898;4.902;2023-03-12T08:05:55;21.23;;;8.43;;
20653;SDS011;21083;50.898;4.902;2023-03-12T08:08:24;20.35;;;7.88;;
20653;SDS011;21083;50.898;4.902;2023-03-12T08:10:52;22.40;;;7.97;;
20653;SDS011;21083;50.898;4.902;2023-03-12T08:13:19;25.92;;;8.40;;
20653;SDS011;21083;50.898;4.902;2023-03-12T08:15:47;23.90;;;9.35;;
20653;SDS011;21083;50.898;4.902;2023-03-12T08:18:15;20.20;;;7.95;;
20653;SDS011;21083;50.898;4.902;2023-03-12T08:20:42;25.05;;;8.85;;
20653;SDS011;21083;50.898;4.902;2023-03-12T08:23:10;24.77;;;8.25;;
20653;SDS011;21083;50.898;4.902;2023-03-12T08:25:38;22.77;;;8.02;;
20653;SDS011;21083;50.898;4.902;2023-03-12T08:28:05;26.63;;;8.90;;
20653;SDS011;21083;50.898;4.902;2023-03-12T08:30:32;24.63;;;8.80;;
20653;SDS011;21083;50.898;4.902;2023-03-12T08:32:59;26.52;;;9.18;;
20653;SDS011;21083;50.898;4.902;2023-03-12T08:35:26;29.75;;;8.20;;
20653;SDS011;21083;50.898;4.902;2023-03-12T08:37:53;36.72;;;10.15;;
20653;SDS011;21083;50.898;4.902;2023-03-12T08:40:21;40.47;;;9.75;;
20653;SDS011;21083;50.898;4.902;2023-03-12T08:42:49;34.17;;;9.65;;
20653;SDS011;21083;50.898;4.902;2023-03-12T08:45:16;48.08;;;10.45;;
20653;SDS011;21083;50.898;4.902;2023-03-12T08:47:43;47.45;;;10.75;;
20653;SDS011;21083;50.898;4.902;2023-03-12T08:50:11;40.78;;;12.95;;
20653;SDS011;21083;50.898;4.902;2023-03-12T08:52:40;40.00;;;11.32;;
20653;SDS011;21083;50.898;4.902;2023-03-12T08:55:08;48.42;;;12.20;;
20653;SDS011;21083;50.898;4.902;2023-03-12T08:57:36;47.72;;;12.07;;
20653;SDS011;21083;50.898;4.902;2023-03-12T09:00:06;54.38;;;13.30;;
20653;SDS011;21083;50.898;4.902;2023-03-12T09:02:36;52.38;;;11.80;;
20653;SDS011;21083;50.898;4.902;2023-03-12T09:05:04;47.92;;;13.55;;
20653;SDS011;21083;50.898;4.902;2023-03-12T09:07:32;54.42;;;12.57;;
20653;SDS011;21083;50.898;4.902;2023-03-12T09:09:59;64.45;;;13.10;;
20653;SDS011;21083;50.898;4.902;2023-03-12T09:12:26;52.03;;;13.70;;
20653;SDS011;21083;50.898;4.902;2023-03-12T09:14:53;51.58;;;12.93;;
20653;SDS011;21083;50.898;4.902;2023-03-12T09:17:21;62.78;;;13.27;;
20653;SDS011;21083;50.898;4.902;2023-03-12T09:19:48;52.72;;;12.82;;
20653;SDS011;21083;50.898;4.902;2023-03-12T09:22:15;58.85;;;13.65;;
20653;SDS011;21083;50.898;4.902;2023-03-12T09:24:42;57.60;;;13.27;;
20653;SDS011;21083;50.898;4.902;2023-03-12T09:27:09;54.47;;;12.20;;
20653;SDS011;21083;50.898;4.902;2023-03-12T09:29:36;47.88;;;10.93;;
20653;SDS011;21083;50.898;4.902;2023-03-12T09:32:03;47.53;;;9.45;;
20653;SDS011;21083;50.898;4.902;2023-03-12T09:34:32;51.20;;;10.77;;
20653;SDS011;21083;50.898;4.902;2023-03-12T09:36:59;49.88;;;11.02;;
20653;SDS011;21083;50.898;4.902;2023-03-12T09:39:26;45.17;;;9.23;;
20653;SDS011;21083;50.898;4.902;2023-03-12T09:41:53;46.05;;;10.30;;
20653;SDS011;21083;50.898;4.902;2023-03-12T09:44:22;48.72;;;10.93;;
20653;SDS011;21083;50.898;4.902;2023-03-12T09:46:55;45.53;;;10.23;;
20653;SDS011;21083;50.898;4.902;2023-03-12T09:49:27;41.00;;;9.23;;
20653;SDS011;21083;50.898;4.902;2023-03-12T09:52:01;48.30;;;11.20;;
20653;SDS011;21083;50.898;4.902;2023-03-12T09:54:35;46.38;;;9.38;;
20653;SDS011;21083;50.898;4.902;2023-03-12T09:57:08;46.45;;;9.70;;
20653;SDS011;21083;50.898;4.902;2023-03-12T09:59:39;37.33;;;7.07;;
20653;SDS011;21083;50.898;4.902;2023-03-12T10:02:12;43.80;;;8.23;;
20653;SDS011;21083;50.898;4.902;2023-03-12T10:04:57;36.25;;;7.40;;
20653;SDS011;21083;50.898;4.902;2023-03-12T10:07:31;54.28;;;7.68;;
20653;SDS011;21083;50.898;4.902;2023-03-12T10:10:06;40.78;;;7.30;;
20653;SDS011;21083;50.898;4.902;2023-03-12T10:12:44;44.80;;;7.25;;
20653;SDS011;21083;50.898;4.902;2023-03-12T10:15:26;41.30;;;7.53;;
20653;SDS011;21083;50.898;4.902;2023-03-12T10:18:04;40.28;;;6.45;;
20653;SDS011;21083;50.898;4.902;2023-03-12T10:23:33;35.10;;;6.78;;
20653;SDS011;21083;50.898;4.902;2023-03-12T10:26:11;41.63;;;8.48;;
20653;SDS011;21083;50.898;4.902;2023-03-12T10:28:44;42.10;;;6.30;;
20653;SDS011;21083;50.898;4.902;2023-03-12T10:31:15;36.00;;;7.13;;
20653;SDS011;21083;50.898;4.902;2023-03-12T10:33:47;33.53;;;6.20;;
20653;SDS011;21083;50.898;4.902;2023-03-12T10:36:20;39.67;;;7.55;;
20653;SDS011;21083;50.898;4.902;2023-03-12T10:38:50;38.70;;;5.90;;
20653;SDS011;21083;50.898;4.902;2023-03-12T10:41:18;32.70;;;5.65;;
20653;SDS011;21083;50.898;4.902;2023-03-12T10:43:46;37.15;;;6.40;;
20653;SDS011;21083;50.898;4.902;2023-03-12T10:46:21;32.13;;;5.60;;
20653;SDS011;21083;50.898;4.902;2023-03-12T10:51:54;39.33;;;6.72;;
20653;SDS011;21083;50.898;4.902;2023-03-12T10:54:25;39.33;;;8.02;;
20653;SDS011;21083;50.898;4.902;2023-03-12T10:56:54;42.15;;;6.63;;
20653;SDS011;21083;50.898;4.902;2023-03-12T10:59:23;37.45;;;6.45;;
20653;SDS011;21083;50.898;4.902;2023-03-12T11:01:53;41.00;;;6.68;;
20653;SDS011;21083;50.898;4.902;2023-03-12T11:04:21;37.58;;;6.47;;
20653;SDS011;21083;50.898;4.902;2023-03-12T11:09:52;47.33;;;7.75;;
20653;SDS011;21083;50.898;4.902;2023-03-12T11:12:37;40.92;;;7.95;;
20653;SDS011;21083;50.898;4.902;2023-03-12T11:15:16;36.42;;;6.30;;
20653;SDS011;21083;50.898;4.902;2023-03-12T11:17:45;39.30;;;6.85;;
20653;SDS011;21083;50.898;4.902;2023-03-12T11:20:25;39.08;;;7.80;;
20653;SDS011;21083;50.898;4.902;2023-03-12T11:22:55;39.88;;;6.82;;
20653;SDS011;21083;50.898;4.902;2023-03-12T11:25:23;41.63;;;7.45;;
20653;SDS011;21083;50.898;4.902;2023-03-12T11:27:53;52.97;;;7.25;;
20653;SDS011;21083;50.898;4.902;2023-03-12T11:30:22;46.25;;;6.75;;
20653;SDS011;21083;50.898;4.902;2023-03-12T11:32:51;45.00;;;8.80;;
20653;SDS011;21083;50.898;4.902;2023-03-12T11:35:20;39.35;;;5.65;;
20653;SDS011;21083;50.898;4.902;2023-03-12T11:37:59;46.78;;;8.32;;
20653;SDS011;21083;50.898;4.902;2023-03-12T11:40:38;40.50;;;6.60;;
20653;SDS011;21083;50.898;4.902;2023-03-12T11:43:25;37.33;;;5.95;;
20653;SDS011;21083;50.898;4.902;2023-03-12T11:48:54;40.38;;;6.05;;
20653;SDS011;21083;50.898;4.902;2023-03-12T11:51:30;28.05;;;5.55;;
20653;SDS011;21083;50.898;4.902;2023-03-12T11:57:08;37.83;;;6.00;;
20653;SDS011;21083;50.898;4.902;2023-03-12T11:59:50;42.13;;;7.05;;
20653;SDS011;21083;50.898;4.902;2023-03-12T12:05:39;32.88;;;6.90;;
20653;SDS011;21083;50.898;4.902;2023-03-12T12:08:20;31.67;;;5.88;;
20653;SDS011;21083;50.898;4.902;2023-03-12T12:11:01;26.27;;;6.07;;
20653;SDS011;21083;50.898;4.902;2023-03-12T12:13:35;30.92;;;5.30;;
20653;SDS011;21083;50.898;4.902;2023-03-12T12:16:25;39.08;;;6.78;;
20653;SDS011;21083;50.898;4.902;2023-03-12T12:19:09;34.67;;;5.63;;
20653;SDS011;21083;50.898;4.902;2023-03-12T12:21:51;28.52;;;5.45;;
20653;SDS011;21083;50.898;4.902;2023-03-12T12:24:33;39.05;;;5.88;;
20653;SDS011;21083;50.898;4.902;2023-03-12T12:27:16;31.38;;;5.30;;
20653;SDS011;21083;50.898;4.902;2023-03-12T12:29:57;35.03;;;6.63;;
20653;SDS011;21083;50.898;4.902;2023-03-12T12:32:33;27.67;;;5.28;;
20653;SDS011;21083;50.898;4.902;2023-03-12T12:35:13;25.92;;;4.78;;
20653;SDS011;21083;50.898;4.902;2023-03-12T12:37:47;31.85;;;5.72;;
20653;SDS011;21083;50.898;4.902;2023-03-12T12:40:21;28.33;;;5.65;;
20653;SDS011;21083;50.898;4.902;2023-03-12T12:42:57;29.88;;;5.43;;
20653;SDS011;21083;50.898;4.902;2023-03-12T12:45:29;35.40;;;5.50;;
20653;SDS011;21083;50.898;4.902;2023-03-12T12:47:57;36.80;;;6.20;;
20653;SDS011;21083;50.898;4.902;2023-03-12T12:50:28;30.40;;;4.82;;
20653;SDS011;21083;50.898;4.902;2023-03-12T12:53:00;34.15;;;5.90;;
20653;SDS011;21083;50.898;4.902;2023-03-12T12:55:34;44.17;;;6.90;;
20653;SDS011;21083;50.898;4.902;2023-03-12T12:58:09;33.50;;;5.88;;
20653;SDS011;21083;50.898;4.902;2023-03-12T13:00:44;38.88;;;6.82;;
20653;SDS011;21083;50.898;4.902;2023-03-12T13:03:15;34.95;;;6.38;;
20653;SDS011;21083;50.898;4.902;2023-03-12T13:05:45;39.47;;;7.05;;
20653;SDS011;21083;50.898;4.902;2023-03-12T13:08:36;33.22;;;4.63;;
20653;SDS011;21083;50.898;4.902;2023-03-12T13:11:27;42.85;;;6.55;;
20653;SDS011;21083;50.898;4.902;2023-03-12T13:14:19;38.92;;;5.60;;
20653;SDS011;21083;50.898;4.902;2023-03-12T13:17:18;29.30;;;5.45;;
20653;SDS011;21083;50.898;4.902;2023-03-12T13:19:48;39.55;;;5.82;;
20653;SDS011;21083;50.898;4.902;2023-03-12T13:22:21;29.70;;;4.82;;
20653;SDS011;21083;50.898;4.902;2023-03-12T13:25:13;36.67;;;5.80;;
20653;SDS011;21083;50.898;4.902;2023-03-12T13:27:56;36.10;;;5.80;;
20653;SDS011;21083;50.898;4.902;2023-03-12T13:33:16;30.40;;;4.60;;
20653;SDS011;21083;50.898;4.902;2023-03-12T13:36:02;40.35;;;5.97;;
20653;SDS011;21083;50.898;4.902;2023-03-12T13:38:35;40.63;;;5.35;;
20653;SDS011;21083;50.898;4.902;2023-03-12T13:41:05;35.97;;;5.63;;
20653;SDS011;21083;50.898;4.902;2023-03-12T13:46:31;34.05;;;4.95;;
20653;SDS011;21083;50.898;4.902;2023-03-12T13:49:14;41.63;;;5.63;;
20653;SDS011;21083;50.898;4.902;2023-03-12T13:51:43;28.42;;;5.55;;
20653;SDS011;21083;50.898;4.902;2023-03-12T13:54:31;25.80;;;4.90;;
20653;SDS011;21083;50.898;4.902;2023-03-12T13:57:01;30.40;;;5.10;;
20653;SDS011;21083;50.898;4.902;2023-03-12T13:59:35;31.30;;;6.18;;
20653;SDS011;21083;50.898;4.902;2023-03-12T14:02:14;34.17;;;6.47;;
20653;SDS011;21083;50.898;4.902;2023-03-12T14:04:47;34.67;;;5.65;;
20653;SDS011;21083;50.898;4.902;2023-03-12T14:07:19;38.45;;;6.60;;
20653;SDS011;21083;50.898;4.902;2023-03-12T14:10:02;32.25;;;5.68;;
20653;SDS011;21083;50.898;4.902;2023-03-12T14:12:40;26.63;;;4.18;;
20653;SDS011;21083;50.898;4.902;2023-03-12T14:15:17;29.08;;;5.82;;
20653;SDS011;21083;50.898;4.902;2023-03-12T14:17:55;30.65;;;5.97;;
20653;SDS011;21083;50.898;4.902;2023-03-12T14:20:25;28.80;;;5.20;;
20653;SDS011;21083;50.898;4.902;2023-03-12T14:22:54;31.35;;;4.82;;
20653;SDS011;21083;50.898;4.902;2023-03-12T14:25:30;29.55;;;5.15;;
20653;SDS011;21083;50.898;4.902;2023-03-12T14:27:59;30.13;;;4.53;;
20653;SDS011;21083;50.898;4.902;2023-03-12T14:30:30;27.17;;;4.18;;
20653;SDS011;21083;50.898;4.902;2023-03-12T14:33:09;28.38;;;4.72;;
20653;SDS011;21083;50.898;4.902;2023-03-12T14:35:39;31.67;;;5.38;;
20653;SDS011;21083;50.898;4.902;2023-03-12T14:38:10;27.17;;;4.25;;
20653;SDS011;21083;50.898;4.902;2023-03-12T14:40:42;32.08;;;5.63;;
20653;SDS011;21083;50.898;4.902;2023-03-12T14:43:20;36.08;;;5.70;;
20653;SDS011;21083;50.898;4.902;2023-03-12T14:45:50;32.20;;;6.10;;
20653;SDS011;21083;50.898;4.902;2023-03-12T14:48:21;34.70;;;6.28;;
20653;SDS011;21083;50.898;4.902;2023-03-12T14:50:49;31.67;;;5.55;;
20653;SDS011;21083;50.898;4.902;2023-03-12T14:53:18;36.08;;;5.75;;
20653;SDS011;21083;50.898;4.902;2023-03-12T14:55:57;32.60;;;4.15;;
20653;SDS011;21083;50.898;4.902;2023-03-12T14:58:28;27.77;;;5.63;;
20653;SDS011;21083;50.898;4.902;2023-03-12T15:00:56;26.92;;;5.07;;
20653;SDS011;21083;50.898;4.902;2023-03-12T15:03:26;27.90;;;4.68;;
20653;SDS011;21083;50.898;4.902;2023-03-12T15:05:56;30.30;;;4.28;;
20653;SDS011;21083;50.898;4.902;2023-03-12T15:08:23;28.90;;;4.63;;
20653;SDS011;21083;50.898;4.902;2023-03-12T15:10:52;37.85;;;6.80;;
20653;SDS011;21083;50.898;4.902;2023-03-12T15:13:20;28.08;;;5.25;;
20653;SDS011;21083;50.898;4.902;2023-03-12T15:15:51;26.92;;;4.80;;
20653;SDS011;21083;50.898;4.902;2023-03-12T15:18:20;35.70;;;4.55;;